Time;durP1;ratioP1;P1;durP2;ratioP2;P2;SDS_P1;SDS_P2;PMS_P1;PMS_P2;Temp;Humidity;BMP_temperature;BMP_pressure;BME280_temperature;BME280_humidity;BME280_pressure;Samples;Min_cycle;Max_cycle;Signal;HPM_P1;HPM_P2
2024/04/04 00:01:39;;;;;;;3.73;1.20;;;8.70;99.90;;;;;;5073809;28;20201;-62
2024/04/04 00:04:05;;;;;;;2.30;1.10;;;8.70;99.90;;;;;;5076330;28;20420;-61
2024/04/04 00:06:30;;;;;;;8.07;1.60;;;8.80;99.90;;;;;;5080095;28;20636;-61
2024/04/04 00:08:56;;;;;;;5.20;1.50;;;8.80;99.90;;;;;;5077330;28;20229;-62
2024/04/04 00:11:21;;;;;;;2.83;1.70;;;8.80;99.90;;;;;;5078617;28;20236;-62
2024/04/04 00:13:47;;;;;;;2.63;1.53;;;8.80;99.90;;;;;;5081017;28;20205;-62
2024/04/04 00:16:14;;;;;;;2.70;1.60;;;8.80;99.90;;;;;;5074640;28;20614;-62
2024/04/04 00:18:42;;;;;;;5.03;1.40;;;8.80;99.90;;;;;;5077179;28;20174;-62
2024/04/04 00:21:08;;;;;;;1.77;1.47;;;8.80;99.90;;;;;;5071078;28;20456;-61
2024/04/04 00:23:33;;;;;;;5.33;1.67;;;8.80;99.90;;;;;;5071772;28;20439;-62
2024/04/04 00:25:59;;;;;;;4.20;1.90;;;8.80;99.90;;;;;;5079027;28;20191;-63
2024/04/04 00:28:24;;;;;;;3.47;1.50;;;8.70;99.90;;;;;;5080236;28;20667;-62
2024/04/04 00:30:50;;;;;;;7.90;1.63;;;8.70;99.90;;;;;;5077138;28;21084;-62
2024/04/04 00:33:16;;;;;;;5.63;1.77;;;8.80;99.90;;;;;;5083167;28;20251;-61
2024/04/04 00:35:41;;;;;;;4.27;1.50;;;8.80;99.90;;;;;;5078241;28;20885;-61
2024/04/04 00:38:07;;;;;;;3.27;1.37;;;8.80;99.90;;;;;;5079996;28;20254;-61
2024/04/04 00:40:39;;;;;;;3.80;1.33;;;8.80;99.90;;;;;;5076604;28;20211;-62
2024/04/04 00:43:04;;;;;;;2.90;1.50;;;8.80;99.90;;;;;;5082191;28;20547;-61
2024/04/04 00:45:31;;;;;;;4.40;1.50;;;8.80;99.90;;;;;;5086829;28;20419;-62
2024/04/04 00:47:58;;;;;;;4.97;1.30;;;8.80;99.90;;;;;;5084307;28;20177;-62
2024/04/04 00:50:24;;;;;;;2.20;1.17;;;8.80;99.90;;;;;;5078372;28;20500;-62
2024/04/04 00:52:50;;;;;;;2.83;1.37;;;8.90;99.90;;;;;;5076384;28;20465;-62
2024/04/04 00:55:16;;;;;;;4.03;1.40;;;8.80;99.90;;;;;;5079627;28;20178;-61
2024/04/04 00:57:43;;;;;;;3.00;1.20;;;8.90;99.90;;;;;;5078263;28;20425;-62
2024/04/04 01:00:10;;;;;;;4.10;1.73;;;8.90;99.90;;;;;;5082836;28;20450;-62
2024/04/04 01:02:36;;;;;;;3.47;1.40;;;8.90;99.90;;;;;;5076159;28;20431;-62
2024/04/04 01:05:01;;;;;;;2.63;1.23;;;8.90;99.90;;;;;;5073725;28;20186;-61
2024/04/04 01:07:27;;;;;;;2.80;1.37;;;8.90;99.90;;;;;;5074773;28;20183;-63
2024/04/04 01:09:53;;;;;;;2.13;1.30;;;8.90;99.90;;;;;;5079992;28;20251;-63
2024/04/04 01:12:19;;;;;;;2.70;1.57;;;8.90;99.90;;;;;;5083596;28;20273;-61
2024/04/04 01:14:44;;;;;;;1.83;1.70;;;8.90;99.90;;;;;;5075429;28;20176;-62
2024/04/04 01:17:10;;;;;;;4.73;1.53;;;8.90;99.90;;;;;;5075186;28;20174;-62
2024/04/04 01:19:35;;;;;;;1.63;1.50;;;8.90;99.90;;;;;;5073685;28;20302;-61
2024/04/04 01:22:01;;;;;;;3.40;1.60;;;8.90;99.90;;;;;;5078160;28;20323;-62
2024/04/04 01:24:26;;;;;;;3.83;1.50;;;8.90;99.90;;;;;;5079645;28;20188;-62
2024/04/04 01:26:52;;;;;;;5.73;1.97;;;8.90;99.90;;;;;;5078378;28;20295;-62
2024/04/04 01:29:18;;;;;;;3.30;1.43;;;8.90;99.90;;;;;;5084757;28;20171;-61
2024/04/04 01:31:43;;;;;;;2.90;1.53;;;8.90;99.90;;;;;;5084489;28;20202;-62
2024/04/04 01:34:09;;;;;;;2.85;1.50;;;8.90;99.90;;;;;;5077417;28;20672;-62
2024/04/04 01:36:34;;;;;;;3.80;1.27;;;8.90;99.90;;;;;;5075488;28;20175;-62
2024/04/04 01:39:00;;;;;;;1.83;1.40;;;8.90;99.90;;;;;;5076110;28;20178;-62
2024/04/04 01:41:26;;;;;;;2.40;1.13;;;8.90;99.90;;;;;;5077744;28;20202;-63
2024/04/04 01:43:51;;;;;;;3.47;1.20;;;8.90;99.90;;;;;;5084635;28;20441;-62
2024/04/04 01:46:17;;;;;;;2.10;1.50;;;8.90;99.90;;;;;;5080996;28;20660;-62
2024/04/04 01:48:42;;;;;;;4.67;1.47;;;8.80;99.90;;;;;;5078016;28;20211;-62
2024/04/04 01:51:08;;;;;;;3.27;1.70;;;8.80;99.90;;;;;;5079224;28;20197;-62
2024/04/04 01:53:35;;;;;;;6.30;1.70;;;8.80;99.90;;;;;;5080926;28;20229;-62
2024/04/04 01:56:01;;;;;;;7.83;1.50;;;8.80;99.90;;;;;;5083312;28;20383;-63
2024/04/04 01:58:27;;;;;;;4.27;1.33;;;8.80;99.90;;;;;;5081336;28;20455;-62
2024/04/04 02:00:52;;;;;;;3.67;2.40;;;8.70;99.90;;;;;;5083911;28;20449;-63
2024/04/04 02:03:18;;;;;;;3.07;2.20;;;8.70;99.90;;;;;;5079639;28;20181;-62
2024/04/04 02:05:44;;;;;;;1.92;1.70;;;8.70;99.90;;;;;;5076099;28;20330;-62
2024/04/04 02:08:09;;;;;;;1.47;1.37;;;8.70;99.90;;;;;;5078554;28;20179;-62
2024/04/04 02:10:36;;;;;;;4.00;1.93;;;8.70;99.90;;;;;;5079962;28;20948;-63
2024/04/04 02:13:02;;;;;;;2.10;1.53;;;8.70;99.90;;;;;;5085660;28;20213;-62
2024/04/04 02:15:27;;;;;;;1.73;1.30;;;8.70;99.90;;;;;;5081353;28;20421;-63
2024/04/04 02:17:53;;;;;;;1.40;1.20;;;8.70;99.90;;;;;;5076622;28;20466;-63
2024/04/04 02:20:19;;;;;;;6.70;1.40;;;8.70;99.90;;;;;;5081265;28;20205;-62
2024/04/04 02:22:44;;;;;;;4.07;1.80;;;8.60;99.90;;;;;;5070361;28;20185;-62
2024/04/04 02:25:10;;;;;;;8.98;1.83;;;8.60;99.90;;;;;;5075374;28;20170;-63
2024/04/04 02:27:36;;;;;;;2.83;1.50;;;8.60;99.90;;;;;;5076472;28;20179;-62
2024/04/04 02:30:02;;;;;;;7.90;2.20;;;8.60;99.90;;;;;;5084318;28;20178;-62
2024/04/04 02:32:29;;;;;;;1.80;1.70;;;8.60;99.90;;;;;;5077979;28;20462;-62
2024/04/04 02:34:55;;;;;;;3.53;1.73;;;8.50;99.90;;;;;;5082067;28;20440;-62
2024/04/04 02:37:21;;;;;;;3.58;1.25;;;8.60;99.90;;;;;;5073860;28;20432;-61
2024/04/04 02:39:47;;;;;;;6.50;1.33;;;8.50;99.90;;;;;;5081360;28;20658;-61
2024/04/04 02:42:12;;;;;;;4.30;1.30;;;8.50;99.90;;;;;;5076946;28;20479;-63
2024/04/04 02:44:38;;;;;;;1.20;1.10;;;8.50;99.90;;;;;;5083207;28;20181;-62
2024/04/04 02:47:04;;;;;;;4.10;1.20;;;8.50;99.90;;;;;;5071628;28;20178;-62
2024/04/04 02:49:30;;;;;;;4.43;1.77;;;8.50;99.90;;;;;;5083142;28;20239;-62
2024/04/04 02:51:55;;;;;;;4.47;1.70;;;8.50;99.90;;;;;;5074300;28;20201;-63
2024/04/04 02:54:21;;;;;;;5.33;1.43;;;8.50;99.90;;;;;;5080757;28;20178;-62
2024/04/04 02:56:47;;;;;;;2.03;1.75;;;8.50;99.90;;;;;;5076856;28;20197;-62
2024/04/04 02:59:13;;;;;;;4.43;1.90;;;8.50;99.90;;;;;;5080190;28;20326;-62
2024/04/04 03:01:39;;;;;;;2.80;1.30;;;8.50;99.90;;;;;;5080339;28;21049;-62
2024/04/04 03:04:04;;;;;;;1.50;1.40;;;8.50;99.90;;;;;;5082297;28;20171;-62
2024/04/04 03:06:31;;;;;;;2.87;1.70;;;8.50;99.90;;;;;;5084432;28;20656;-63
2024/04/04 03:08:56;;;;;;;1.87;1.50;;;8.50;99.90;;;;;;5080245;28;20594;-63
2024/04/04 03:11:22;;;;;;;2.50;2.00;;;8.50;99.90;;;;;;5079474;28;20429;-63
2024/04/04 03:13:47;;;;;;;3.13;1.50;;;8.50;99.90;;;;;;5075866;28;20198;-62
2024/04/04 03:16:13;;;;;;;2.40;1.50;;;8.50;99.90;;;;;;5076863;28;20179;-62
2024/04/04 03:18:38;;;;;;;3.50;1.70;;;8.50;99.90;;;;;;5079707;28;20184;-62
2024/04/04 03:21:04;;;;;;;5.55;1.58;;;8.50;99.90;;;;;;5073455;28;20669;-62
2024/04/04 03:23:30;;;;;;;2.03;1.73;;;8.50;99.90;;;;;;5082276;28;20198;-62
2024/04/04 03:25:56;;;;;;;4.50;1.58;;;8.50;99.90;;;;;;5080275;28;20166;-62
2024/04/04 03:28:22;;;;;;;4.93;1.30;;;8.50;99.90;;;;;;5083877;28;20194;-62
2024/04/04 03:30:48;;;;;;;2.00;1.80;;;8.50;99.90;;;;;;5082178;28;20451;-62
2024/04/04 03:33:14;;;;;;;2.07;1.30;;;8.50;99.90;;;;;;5082035;28;20461;-62
2024/04/04 03:35:39;;;;;;;3.33;1.60;;;8.50;99.90;;;;;;5087322;28;20782;-62
2024/04/04 03:38:05;;;;;;;2.50;1.50;;;8.50;99.90;;;;;;5078103;28;20186;-64
2024/04/04 03:40:34;;;;;;;3.28;1.67;;;8.50;99.90;;;;;;5083387;28;20220;-62
2024/04/04 03:43:03;;;;;;;3.27;1.83;;;8.50;99.90;;;;;;5079579;28;20262;-62
2024/04/04 03:45:29;;;;;;;3.50;1.47;;;8.50;99.90;;;;;;5078889;28;20424;-62
2024/04/04 03:47:57;;;;;;;1.93;1.60;;;8.50;99.90;;;;;;5081127;28;20441;-63
2024/04/04 03:50:23;;;;;;;1.53;1.27;;;8.50;99.90;;;;;;5082214;28;20440;-63
2024/04/04 03:52:49;;;;;;;1.67;1.57;;;8.50;99.90;;;;;;5080601;28;20444;-63
2024/04/04 03:55:14;;;;;;;5.43;1.90;;;8.50;99.90;;;;;;5079431;28;20427;-62
2024/04/04 03:57:40;;;;;;;5.27;1.83;;;8.50;99.90;;;;;;5077386;28;20170;-60
2024/04/04 04:00:09;;;;;;;3.50;1.73;;;8.60;99.90;;;;;;5077666;28;20583;-60
2024/04/04 04:02:35;;;;;;;3.53;1.50;;;8.60;99.90;;;;;;5077566;28;20178;-60
2024/04/04 04:05:01;;;;;;;2.50;1.43;;;8.60;99.90;;;;;;5075623;28;20433;-62
2024/04/04 04:07:26;;;;;;;3.78;1.60;;;8.60;99.90;;;;;;5076478;28;20416;-63
2024/04/04 04:09:52;;;;;;;2.10;1.57;;;8.70;99.90;;;;;;5077025;28;20297;-63
2024/04/04 04:12:17;;;;;;;4.17;1.80;;;8.70;99.90;;;;;;5078771;28;20652;-62
2024/04/04 04:14:43;;;;;;;3.60;1.70;;;8.70;99.90;;;;;;5078340;28;20170;-63
2024/04/04 04:17:08;;;;;;;1.90;1.80;;;8.70;99.90;;;;;;5081560;28;20178;-63
2024/04/04 04:19:34;;;;;;;6.32;1.90;;;8.70;99.90;;;;;;5080476;28;20176;-63
2024/04/04 04:21:59;;;;;;;2.13;1.80;;;8.70;99.90;;;;;;5076312;28;20293;-63
2024/04/04 04:24:25;;;;;;;5.83;1.73;;;8.70;99.90;;;;;;5080852;28;20174;-63
2024/04/04 04:26:51;;;;;;;3.80;1.47;;;8.70;99.90;;;;;;5075750;28;20225;-62
2024/04/04 04:29:17;;;;;;;3.77;1.90;;;8.70;99.90;;;;;;5078945;28;20174;-61
2024/04/04 04:31:44;;;;;;;2.60;2.10;;;8.70;99.90;;;;;;5076528;28;20213;-62
2024/04/04 04:34:09;;;;;;;2.30;1.47;;;8.70;99.90;;;;;;5074443;28;20573;-63
2024/04/04 04:37:03;;;;;;;1.83;1.43;;;8.70;99.90;;;;;;5067548;28;20516;-63
2024/04/04 04:39:29;;;;;;;3.72;1.27;;;8.60;99.90;;;;;;5071767;28;20196;-63
2024/04/04 04:41:55;;;;;;;2.97;1.13;;;8.60;99.90;;;;;;5071342;28;20222;-62
2024/04/04 04:44:21;;;;;;;3.03;1.57;;;8.60;99.90;;;;;;5075501;28;20424;-62
2024/04/04 04:46:46;;;;;;;3.00;1.55;;;8.60;99.90;;;;;;5079368;28;20681;-63
2024/04/04 04:49:12;;;;;;;5.20;1.67;;;8.60;99.90;;;;;;5083873;28;20178;-63
2024/04/04 04:51:37;;;;;;;4.20;1.60;;;8.60;99.90;;;;;;5080225;28;20539;-63
2024/04/04 04:54:04;;;;;;;2.80;1.60;;;8.60;99.90;;;;;;5084206;28;20210;-64
2024/04/04 04:56:30;;;;;;;3.40;1.90;;;8.60;99.90;;;;;;5076077;28;20185;-63
2024/04/04 04:58:56;;;;;;;3.97;1.40;;;8.60;99.90;;;;;;5072683;28;20444;-63
2024/04/04 05:01:21;;;;;;;4.40;1.90;;;8.60;99.90;;;;;;5081970;28;20323;-62
2024/04/04 05:03:47;;;;;;;4.50;1.50;;;8.60;99.90;;;;;;5079981;28;20174;-62
2024/04/04 05:06:15;;;;;;;3.08;1.50;;;8.60;99.90;;;;;;5085149;28;20185;-63
2024/04/04 05:08:41;;;;;;;5.40;1.77;;;8.60;99.90;;;;;;5079144;28;20174;-63
2024/04/04 05:11:06;;;;;;;3.43;1.83;;;8.60;99.90;;;;;;5076461;28;20471;-63
2024/04/04 05:13:32;;;;;;;9.43;1.80;;;8.70;99.90;;;;;;5083694;28;20455;-63
2024/04/04 05:15:57;;;;;;;1.60;1.50;;;8.70;99.90;;;;;;5074895;28;20227;-63
2024/04/04 05:18:23;;;;;;;2.05;1.70;;;8.70;99.90;;;;;;5070983;28;20190;-62
2024/04/04 05:20:56;;;;;;;4.27;1.90;;;8.70;99.90;;;;;;5079635;28;20186;-63
2024/04/04 05:23:22;;;;;;;3.47;1.60;;;8.70;99.90;;;;;;5081185;28;20185;-63
2024/04/04 05:25:47;;;;;;;2.27;1.57;;;8.60;99.90;;;;;;5082497;28;20428;-63
2024/04/04 05:28:13;;;;;;;2.77;1.93;;;8.70;99.90;;;;;;5076385;28;20179;-63
2024/04/04 05:30:39;;;;;;;4.10;1.80;;;8.60;99.90;;;;;;5079748;28;20273;-63
2024/04/04 05:33:05;;;;;;;4.17;2.20;;;8.60;99.90;;;;;;5083740;28;20695;-63
2024/04/04 05:35:31;;;;;;;3.63;2.17;;;8.70;99.90;;;;;;5084754;28;20174;-63
2024/04/04 05:37:57;;;;;;;5.03;1.88;;;8.70;99.90;;;;;;5073952;28;20224;-63
2024/04/04 05:40:25;;;;;;;6.10;2.20;;;8.70;99.90;;;;;;5073575;28;20215;-63
2024/04/04 05:42:51;;;;;;;4.73;1.80;;;8.70;99.90;;;;;;5079008;28;20202;-62
2024/04/04 05:45:16;;;;;;;3.57;1.83;;;8.80;99.90;;;;;;5077506;28;20482;-63
2024/04/04 05:47:42;;;;;;;2.90;1.67;;;8.80;99.90;;;;;;5081869;28;20182;-63
2024/04/04 05:50:09;;;;;;;2.10;1.38;;;8.90;99.90;;;;;;5073821;28;20233;-63
2024/04/04 05:52:35;;;;;;;2.60;1.50;;;8.90;99.90;;;;;;5078328;28;20191;-62
2024/04/04 05:55:01;;;;;;;3.47;1.60;;;9.00;99.90;;;;;;5080604;28;20515;-62
2024/04/04 05:57:26;;;;;;;4.70;1.50;;;8.90;99.90;;;;;;5085035;28;20494;-63
2024/04/04 05:59:53;;;;;;;2.47;1.33;;;9.00;99.90;;;;;;5073444;28;20175;-63
2024/04/04 06:02:19;;;;;;;2.30;1.50;;;8.90;99.90;;;;;;5075079;28;20607;-62
2024/04/04 06:04:45;;;;;;;7.27;1.63;;;9.00;99.90;;;;;;5076281;28;21041;-63
2024/04/04 06:07:11;;;;;;;1.87;1.70;;;9.00;99.90;;;;;;5072985;28;20423;-63
2024/04/04 06:09:37;;;;;;;2.20;1.63;;;9.00;99.90;;;;;;5081807;28;20167;-62
2024/04/04 06:12:03;;;;;;;11.63;2.30;;;9.00;99.90;;;;;;5073497;28;20889;-63
2024/04/04 06:14:29;;;;;;;1.83;1.50;;;9.10;99.90;;;;;;5073436;28;20178;-64
2024/04/04 06:16:54;;;;;;;1.83;1.63;;;9.10;99.90;;;;;;5082468;28;20239;-63
2024/04/04 06:19:20;;;;;;;2.27;1.60;;;9.10;99.90;;;;;;5081898;28;20202;-62
2024/04/04 06:21:46;;;;;;;3.27;1.83;;;9.10;99.90;;;;;;5077258;28;21438;-62
2024/04/04 06:24:12;;;;;;;6.00;2.80;;;9.20;99.90;;;;;;5083165;28;20186;-62
2024/04/04 06:26:40;;;;;;;5.07;3.00;;;9.20;99.90;;;;;;5085159;28;20185;-62
2024/04/04 06:29:05;;;;;;;5.53;2.87;;;9.20;99.90;;;;;;5078293;28;20243;-62
2024/04/04 06:31:31;;;;;;;11.63;2.70;;;9.30;99.90;;;;;;5081742;28;20432;-63
2024/04/04 06:33:57;;;;;;;7.47;2.53;;;9.30;99.90;;;;;;5087835;28;20635;-63
2024/04/04 06:36:22;;;;;;;4.53;2.80;;;9.30;99.90;;;;;;5076226;28;20175;-64
2024/04/04 06:38:53;;;;;;;4.23;2.63;;;9.30;99.90;;;;;;5084634;28;20175;-62
2024/04/04 06:41:18;;;;;;;2.90;2.60;;;9.30;99.90;;;;;;5085177;28;20791;-63
2024/04/04 06:43:44;;;;;;;3.97;1.97;;;9.30;99.90;;;;;;5081909;28;20436;-63
2024/04/04 06:46:10;;;;;;;4.07;2.37;;;9.40;99.90;;;;;;5090046;28;20189;-63
2024/04/04 06:48:40;;;;;;;3.08;2.42;;;9.40;99.90;;;;;;5079555;28;20181;-63
2024/04/04 06:51:07;;;;;;;3.13;2.00;;;9.40;99.90;;;;;;5088296;28;20233;-62
2024/04/04 06:53:33;;;;;;;2.87;2.00;;;9.50;99.90;;;;;;5082546;28;20470;-63
2024/04/04 06:55:58;;;;;;;8.83;2.70;;;9.50;99.90;;;;;;5081925;28;20444;-63
2024/04/04 06:58:24;;;;;;;1.70;1.40;;;9.60;99.90;;;;;;5084318;28;20263;-62
2024/04/04 07:00:57;;;;;;;5.77;1.97;;;9.70;99.90;;;;;;5087570;28;20190;-62
2024/04/04 07:03:23;;;;;;;5.53;1.83;;;9.70;99.90;;;;;;5079583;28;20178;-62
2024/04/04 07:05:48;;;;;;;3.37;2.00;;;9.80;99.90;;;;;;5083212;28;20439;-63
2024/04/04 07:08:14;;;;;;;2.88;1.60;;;9.90;99.90;;;;;;5080391;28;20178;-63
2024/04/04 07:10:40;;;;;;;5.80;1.37;;;10.00;99.90;;;;;;5086628;28;20203;-63
2024/04/04 07:13:05;;;;;;;2.63;1.43;;;10.00;99.90;;;;;;5088153;28;20685;-63
2024/04/04 07:15:31;;;;;;;5.28;1.60;;;10.00;99.90;;;;;;5074791;28;20167;-62
2024/04/04 07:17:57;;;;;;;2.20;1.70;;;10.10;99.90;;;;;;5079202;28;20261;-63
2024/04/04 07:20:23;;;;;;;3.80;1.67;;;10.10;99.90;;;;;;5087735;28;20248;-63
2024/04/04 07:22:49;;;;;;;6.93;1.60;;;10.10;99.90;;;;;;5082398;28;20979;-60
2024/04/04 07:25:16;;;;;;;4.18;1.88;;;10.20;99.90;;;;;;5078475;28;20516;-61
2024/04/04 07:27:42;;;;;;;3.97;1.60;;;10.20;99.90;;;;;;5084037;28;20184;-62
2024/04/04 07:30:09;;;;;;;3.50;1.83;;;10.20;99.90;;;;;;5090577;28;20447;-63
2024/04/04 07:32:34;;;;;;;5.83;2.00;;;10.20;99.90;;;;;;5080197;28;20838;-65
2024/04/04 07:35:01;;;;;;;10.63;2.90;;;10.20;99.90;;;;;;5083337;28;20415;-62
2024/04/04 07:37:27;;;;;;;11.30;2.60;;;10.20;99.90;;;;;;5084654;28;20178;-63
2024/04/04 07:39:53;;;;;;;4.37;2.30;;;10.20;99.90;;;;;;5079551;28;20431;-62
2024/04/04 07:42:19;;;;;;;4.13;2.10;;;10.30;99.90;;;;;;5079213;28;20404;-64
2024/04/04 07:44:46;;;;;;;5.87;1.93;;;10.30;99.90;;;;;;5077297;28;20170;-62
2024/04/04 07:47:11;;;;;;;6.33;2.13;;;10.40;99.90;;;;;;5084114;28;20412;-62
2024/04/04 07:49:37;;;;;;;4.57;2.23;;;10.60;99.90;;;;;;5078183;28;20439;-62
2024/04/04 07:52:03;;;;;;;7.50;1.80;;;10.80;99.90;;;;;;5079901;28;20201;-63
2024/04/04 07:54:29;;;;;;;6.70;1.80;;;10.90;99.90;;;;;;5079154;28;20617;-62
2024/04/04 07:56:55;;;;;;;5.07;2.33;;;11.10;99.90;;;;;;5082829;28;20269;-63
2024/04/04 07:59:20;;;;;;;2.53;1.83;;;11.20;99.90;;;;;;5081725;28;20182;-61
2024/04/04 08:01:46;;;;;;;4.60;2.70;;;11.30;99.90;;;;;;5076236;28;20443;-62
2024/04/04 08:04:12;;;;;;;5.97;2.80;;;11.40;99.90;;;;;;5073032;28;20669;-62
2024/04/04 08:06:38;;;;;;;7.70;2.50;;;11.40;99.90;;;;;;5080854;28;20170;-62
2024/04/04 08:09:06;;;;;;;4.13;1.60;;;11.40;99.90;;;;;;5076371;28;20179;-63
2024/04/04 08:11:32;;;;;;;2.83;1.67;;;11.50;99.90;;;;;;5077134;28;20834;-62
2024/04/04 08:13:57;;;;;;;3.37;1.50;;;11.50;99.90;;;;;;5082667;28;20509;-64
2024/04/04 08:16:23;;;;;;;3.58;2.10;;;11.60;99.90;;;;;;5078976;28;20162;-63
2024/04/04 08:18:48;;;;;;;13.00;2.93;;;11.70;99.90;;;;;;5079542;28;20259;-62
2024/04/04 08:21:14;;;;;;;2.83;1.60;;;11.70;99.90;;;;;;5083136;28;20198;-63
2024/04/04 08:23:40;;;;;;;2.00;1.80;;;11.70;99.90;;;;;;5080899;28;20183;-63
2024/04/04 08:26:06;;;;;;;3.73;2.33;;;11.70;99.90;;;;;;5069855;28;20179;-63
2024/04/04 08:28:32;;;;;;;11.63;2.13;;;11.70;99.90;;;;;;5082950;28;20239;-64
2024/04/04 08:31:02;;;;;;;1.83;1.53;;;11.70;99.90;;;;;;5086049;28;20959;-64
2024/04/04 08:33:28;;;;;;;14.27;2.77;;;11.80;99.90;;;;;;5079934;28;20233;-62
2024/04/04 08:35:54;;;;;;;10.27;1.60;;;11.80;99.90;;;;;;5088128;28;21106;-62
2024/04/04 08:38:20;;;;;;;3.70;2.30;;;11.90;99.90;;;;;;5086418;28;20416;-64
2024/04/04 08:40:47;;;;;;;2.97;1.70;;;12.00;99.90;;;;;;5086960;28;20435;-62
2024/04/04 08:43:13;;;;;;;4.40;1.73;;;12.10;99.90;;;;;;5086010;28;20548;-63
2024/04/04 08:45:47;;;;;;;5.30;1.70;;;12.10;99.90;;;;;;5086639;28;20516;-63
2024/04/04 08:48:18;;;;;;;3.10;1.60;;;12.20;99.90;;;;;;5075113;28;20425;-64
2024/04/04 08:50:45;;;;;;;3.50;1.47;;;12.30;99.90;;;;;;5080348;28;20495;-63
2024/04/04 08:53:15;;;;;;;2.57;1.50;;;12.30;99.90;;;;;;5077821;28;20448;-63
2024/04/04 08:55:43;;;;;;;3.03;1.80;;;12.30;99.90;;;;;;5081211;28;20404;-63
2024/04/04 08:58:12;;;;;;;6.73;1.73;;;12.20;99.90;;;;;;5080508;28;20490;-63
2024/04/04 09:00:39;;;;;;;3.03;1.30;;;12.20;99.90;;;;;;5079000;28;20462;-64
2024/04/04 09:03:06;;;;;;;5.53;1.93;;;12.10;99.90;;;;;;5077638;28;20437;-63
2024/04/04 09:05:31;;;;;;;5.43;1.87;;;12.10;99.90;;;;;;5074935;28;20439;-62
2024/04/04 09:07:57;;;;;;;4.03;2.43;;;12.10;99.90;;;;;;5078217;28;20507;-63
2024/04/04 09:10:23;;;;;;;2.80;1.63;;;12.10;99.90;;;;;;5079021;28;20194;-63
2024/04/04 09:12:59;;;;;;;7.57;1.53;;;12.00;99.90;;;;;;5074552;28;20288;-64
2024/04/04 09:15:26;;;;;;;5.27;1.43;;;12.10;99.90;;;;;;5077485;28;20162;-64
2024/04/04 09:17:51;;;;;;;6.00;1.90;;;12.00;99.90;;;;;;5077056;28;20733;-63
2024/04/04 09:20:20;;;;;;;5.45;1.85;;;12.10;99.90;;;;;;5079818;28;20442;-62
2024/04/04 09:22:45;;;;;;;1.87;1.57;;;12.10;99.90;;;;;;5074021;28;20225;-66
2024/04/04 09:25:11;;;;;;;4.50;1.60;;;12.10;99.90;;;;;;5077833;28;20463;-63
2024/04/04 09:27:38;;;;;;;4.10;2.00;;;12.10;99.90;;;;;;5082555;28;20737;-62
2024/04/04 09:30:10;;;;;;;6.87;1.97;;;12.10;99.90;;;;;;5073165;28;20187;-65
2024/04/04 09:32:36;;;;;;;7.72;2.17;;;12.20;99.90;;;;;;5083563;28;22180;-63
2024/04/04 09:35:04;;;;;;;7.23;2.20;;;12.20;99.90;;;;;;5083529;28;20174;-63
2024/04/04 09:37:30;;;;;;;4.10;1.70;;;12.30;99.90;;;;;;5081668;28;20409;-63
2024/04/04 09:39:56;;;;;;;3.10;1.60;;;12.30;99.90;;;;;;5080494;28;20437;-63
2024/04/04 09:42:23;;;;;;;7.15;1.60;;;12.30;99.90;;;;;;5080638;28;20431;-62
2024/04/04 09:44:49;;;;;;;2.97;1.30;;;12.40;99.90;;;;;;5083531;28;20224;-61
2024/04/04 09:47:17;;;;;;;5.83;1.80;;;12.50;99.90;;;;;;5080175;28;20868;-62
2024/04/04 09:49:43;;;;;;;2.77;1.60;;;12.60;99.90;;;;;;5077766;28;21177;-62
2024/04/04 09:52:10;;;;;;;4.53;1.73;;;12.70;99.90;;;;;;5079570;28;20855;-62
2024/04/04 09:54:36;;;;;;;4.83;1.50;;;12.80;99.90;;;;;;5080492;28;20452;-62
2024/04/04 09:57:02;;;;;;;7.03;2.13;;;13.00;99.90;;;;;;5075793;28;20429;-62
2024/04/04 09:59:30;;;;;;;7.27;1.93;;;13.10;99.90;;;;;;5077522;28;20503;-62
2024/04/04 10:02:03;;;;;;;4.43;1.67;;;13.20;99.90;;;;;;5080416;28;20813;-62
2024/04/04 10:04:35;;;;;;;7.93;2.00;;;13.30;99.90;;;;;;5077889;28;20825;-62
2024/04/04 10:07:02;;;;;;;3.90;2.03;;;13.50;99.90;;;;;;5081214;28;20945;-62
2024/04/04 10:09:39;;;;;;;7.97;1.57;;;13.60;99.90;;;;;;5084348;28;20926;-63
2024/04/04 10:12:15;;;;;;;5.13;1.30;;;13.80;96.30;;;;;;5082969;28;20427;-63
2024/04/04 10:14:50;;;;;;;9.40;1.57;;;13.90;94.60;;;;;;5082701;28;20439;-63
2024/04/04 10:17:16;;;;;;;10.03;2.67;;;14.00;92.50;;;;;;5077977;28;20478;-62
2024/04/04 10:19:45;;;;;;;3.87;1.30;;;14.00;91.50;;;;;;5078156;28;20491;-60
2024/04/04 10:22:16;;;;;;;3.63;1.43;;;13.90;90.70;;;;;;5079230;28;20646;-62
2024/04/04 10:24:42;;;;;;;2.80;1.70;;;13.90;90.50;;;;;;5081448;28;21016;-62
2024/04/04 10:27:11;;;;;;;4.37;1.43;;;13.80;91.00;;;;;;5076025;28;20421;-62
2024/04/04 10:29:38;;;;;;;4.20;1.33;;;13.80;90.80;;;;;;5079244;28;20175;-62
2024/04/04 10:32:04;;;;;;;3.63;1.50;;;13.70;91.10;;;;;;5082348;28;20960;-62
2024/04/04 10:34:30;;;;;;;3.97;1.63;;;13.60;90.50;;;;;;5085021;28;20970;-62
2024/04/04 10:36:56;;;;;;;8.10;1.70;;;13.60;91.00;;;;;;5082097;28;20427;-62
2024/04/04 10:39:22;;;;;;;10.48;1.95;;;13.60;91.40;;;;;;5075264;28;20194;-62
2024/04/04 10:41:50;;;;;;;3.07;1.67;;;13.60;92.00;;;;;;5080767;28;20206;-62
2024/04/04 10:44:20;;;;;;;3.50;1.50;;;13.60;91.90;;;;;;5079703;28;20223;-62
2024/04/04 10:46:56;;;;;;;3.73;1.50;;;13.60;92.50;;;;;;5078790;28;20519;-63
2024/04/04 10:49:27;;;;;;;3.83;1.50;;;13.60;90.30;;;;;;5079575;28;20434;-62
2024/04/04 10:52:01;;;;;;;4.30;1.47;;;13.60;89.40;;;;;;5077152;28;20539;-62
2024/04/04 10:54:28;;;;;;;4.70;1.73;;;13.60;88.70;;;;;;5077809;28;20462;-61
2024/04/04 10:56:54;;;;;;;5.40;1.50;;;13.60;89.50;;;;;;5078409;28;20935;-62
2024/04/04 10:59:20;;;;;;;3.50;1.60;;;13.50;90.20;;;;;;5079673;28;20458;-62
2024/04/04 11:01:51;;;;;;;3.53;1.33;;;13.40;90.40;;;;;;5082002;28;20699;-62
2024/04/04 11:04:19;;;;;;;4.37;1.30;;;13.40;89.50;;;;;;5075598;28;20397;-61
2024/04/04 11:06:47;;;;;;;3.20;1.77;;;13.40;91.10;;;;;;5072250;28;20606;-63
2024/04/04 11:09:15;;;;;;;4.87;1.47;;;13.40;92.30;;;;;;5080969;28;20431;-62
2024/04/04 11:11:42;;;;;;;6.50;1.60;;;13.40;92.10;;;;;;5079934;28;20453;-62
2024/04/04 11:14:08;;;;;;;5.90;1.50;;;13.40;91.50;;;;;;5080459;28;20487;-62
2024/04/04 11:16:37;;;;;;;4.70;1.80;;;13.40;92.00;;;;;;5078310;28;20830;-62
2024/04/04 11:19:02;;;;;;;5.87;2.00;;;13.50;92.00;;;;;;5083479;28;20428;-62
2024/04/04 11:21:28;;;;;;;4.93;1.50;;;13.50;92.90;;;;;;5081477;28;20443;-62
2024/04/04 11:23:54;;;;;;;5.47;1.70;;;13.50;91.90;;;;;;5078831;28;20600;-62
2024/04/04 11:26:20;;;;;;;4.97;1.50;;;13.60;91.90;;;;;;5075221;28;20311;-62
2024/04/04 11:28:47;;;;;;;6.33;1.60;;;13.60;91.70;;;;;;5075981;28;20543;-62
2024/04/04 11:31:13;;;;;;;3.63;1.33;;;13.60;91.20;;;;;;5083450;28;20466;-63
2024/04/04 11:33:39;;;;;;;3.90;2.00;;;13.70;90.60;;;;;;5084157;28;20464;-62
2024/04/04 11:36:05;;;;;;;4.30;1.25;;;13.70;91.20;;;;;;5086125;28;20908;-62
2024/04/04 11:38:31;;;;;;;1.63;1.17;;;13.80;91.00;;;;;;5077995;28;20250;-62
2024/04/04 11:40:57;;;;;;;1.50;1.20;;;13.80;90.60;;;;;;5081045;28;21012;-62
2024/04/04 11:43:24;;;;;;;5.00;1.33;;;13.80;90.30;;;;;;5077905;28;20427;-62
2024/04/04 11:45:50;;;;;;;3.03;1.40;;;13.80;90.30;;;;;;5078503;28;20182;-61
2024/04/04 11:48:16;;;;;;;2.53;1.10;;;13.80;90.90;;;;;;5084213;28;20431;-62
2024/04/04 11:50:42;;;;;;;3.42;1.20;;;13.80;92.00;;;;;;5088962;28;20428;-62
2024/04/04 11:53:09;;;;;;;7.27;2.40;;;13.80;91.90;;;;;;5078796;28;20221;-62
2024/04/04 11:55:35;;;;;;;12.02;3.72;;;13.90;91.20;;;;;;5077506;28;20182;-62
2024/04/04 11:58:01;;;;;;;14.20;2.30;;;13.90;90.90;;;;;;5083028;28;20235;-62
2024/04/04 12:00:26;;;;;;;6.27;1.63;;;13.90;90.60;;;;;;5080419;28;20200;-62
2024/04/04 12:02:52;;;;;;;2.20;1.50;;;13.90;90.00;;;;;;5081894;28;20235;-63
2024/04/04 12:05:18;;;;;;;2.67;1.53;;;14.00;91.80;;;;;;5085486;28;20186;-63
2024/04/04 12:07:43;;;;;;;6.63;1.70;;;14.00;93.10;;;;;;5078167;28;20193;-64
2024/04/04 12:10:12;;;;;;;3.00;1.50;;;14.00;95.20;;;;;;5078805;28;20270;-63
2024/04/04 12:12:38;;;;;;;4.10;1.50;;;14.00;96.70;;;;;;5083651;28;20201;-63
2024/04/04 12:15:07;;;;;;;2.20;1.50;;;14.00;97.20;;;;;;5095551;28;20448;-63
2024/04/04 12:17:36;;;;;;;3.20;1.57;;;14.00;97.40;;;;;;5082924;28;20413;-63
2024/04/04 12:20:03;;;;;;;4.22;1.60;;;14.10;99.30;;;;;;5082787;28;20408;-63
2024/04/04 12:22:29;;;;;;;3.23;1.47;;;14.00;99.50;;;;;;5074686;28;20243;-63
2024/04/04 12:24:55;;;;;;;2.90;1.53;;;14.00;99.80;;;;;;5079755;28;20450;-63
2024/04/04 12:27:21;;;;;;;4.30;1.55;;;14.00;99.90;;;;;;5077947;28;20502;-62
2024/04/04 12:29:46;;;;;;;6.60;2.03;;;14.00;99.90;;;;;;5080001;28;20166;-63
2024/04/04 12:32:12;;;;;;;2.58;1.45;;;13.90;99.90;;;;;;5080537;28;20194;-63
2024/04/04 12:34:37;;;;;;;4.43;1.40;;;13.70;99.90;;;;;;5076879;28;20226;-64
2024/04/04 12:37:04;;;;;;;2.70;1.30;;;13.70;99.90;;;;;;5082016;28;20216;-63
2024/04/04 12:39:29;;;;;;;2.17;1.37;;;13.60;99.90;;;;;;5077608;28;20658;-63
2024/04/04 12:41:55;;;;;;;4.13;1.60;;;13.40;99.90;;;;;;5074336;28;20463;-64
2024/04/04 12:44:20;;;;;;;3.75;1.65;;;13.30;99.90;;;;;;5080040;28;20771;-63
2024/04/04 12:46:46;;;;;;;7.83;1.97;;;13.20;99.90;;;;;;5078539;28;20651;-62
2024/04/04 12:49:14;;;;;;;3.47;1.55;;;13.00;99.90;;;;;;5083133;28;22129;-63